sensor_id;sensor_type;location;lat;lon;timestamp;P1;durP1;ratioP1;P2;durP2;ratioP2
7941;SDS011;4016;50.758;7.150;2024-01-30T00:04:27;11.07;;;8.57;;
7941;SDS011;4016;50.758;7.150;2024-01-30T00:09:27;10.83;;;7.90;;
7941;SDS011;4016;50.758;7.150;2024-01-30T00:14:27;11.77;;;8.70;;
7941;SDS011;4016;50.758;7.150;2024-01-30T00:19:28;11.07;;;7.47;;
7941;SDS011;4016;50.758;7.150;2024-01-30T00:24:28;10.27;;;8.47;;
7941;SDS011;4016;50.758;7.150;2024-01-30T00:29:29;11.13;;;8.67;;
7941;SDS011;4016;50.758;7.150;2024-01-30T00:34:31;9.37;;;8.13;;
7941;SDS011;4016;50.758;7.150;2024-01-30T00:39:31;9.90;;;7.93;;
7941;SDS011;4016;50.758;7.150;2024-01-30T00:44:34;9.57;;;7.83;;
7941;SDS011;4016;50.758;7.150;2024-01-30T00:49:37;12.43;;;7.50;;
7941;SDS011;4016;50.758;7.150;2024-01-30T00:54:37;10.07;;;7.17;;
7941;SDS011;4016;50.758;7.150;2024-01-30T00:59:37;10.80;;;7.70;;
7941;SDS011;4016;50.758;7.150;2024-01-30T01:04:38;10.80;;;7.90;;
7941;SDS011;4016;50.758;7.150;2024-01-30T01:09:38;13.03;;;8.03;;
7941;SDS011;4016;50.758;7.150;2024-01-30T01:14:38;11.50;;;8.27;;
7941;SDS011;4016;50.758;7.150;2024-01-30T01:19:39;10.00;;;8.40;;
7941;SDS011;4016;50.758;7.150;2024-01-30T01:24:39;10.00;;;7.67;;
7941;SDS011;4016;50.758;7.150;2024-01-30T01:29:39;10.43;;;8.03;;
7941;SDS011;4016;50.758;7.150;2024-01-30T01:34:40;9.60;;;8.27;;
7941;SDS011;4016;50.758;7.150;2024-01-30T01:39:40;12.97;;;9.57;;
7941;SDS011;4016;50.758;7.150;2024-01-30T01:44:41;11.37;;;8.27;;
7941;SDS011;4016;50.758;7.150;2024-01-30T01:49:41;10.70;;;8.17;;
7941;SDS011;4016;50.758;7.150;2024-01-30T01:54:42;11.17;;;8.57;;
7941;SDS011;4016;50.758;7.150;2024-01-30T01:59:42;10.20;;;8.83;;
7941;SDS011;4016;50.758;7.150;2024-01-30T02:04:43;12.83;;;8.47;;
7941;SDS011;4016;50.758;7.150;2024-01-30T02:09:43;11.63;;;9.10;;
7941;SDS011;4016;50.758;7.150;2024-01-30T02:14:47;10.10;;;8.33;;
7941;SDS011;4016;50.758;7.150;2024-01-30T02:19:48;12.17;;;8.93;;
7941;SDS011;4016;50.758;7.150;2024-01-30T02:24:49;10.27;;;8.53;;
7941;SDS011;4016;50.758;7.150;2024-01-30T02:29:49;10.43;;;8.30;;
7941;SDS011;4016;50.758;7.150;2024-01-30T02:34:50;9.60;;;8.40;;
7941;SDS011;4016;50.758;7.150;2024-01-30T02:39:50;12.73;;;8.90;;
7941;SDS011;4016;50.758;7.150;2024-01-30T02:44:51;10.33;;;7.93;;
7941;SDS011;4016;50.758;7.150;2024-01-30T02:49:51;11.50;;;8.10;;
7941;SDS011;4016;50.758;7.150;2024-01-30T02:54:51;11.20;;;8.27;;
7941;SDS011;4016;50.758;7.150;2024-01-30T02:59:52;10.30;;;8.60;;
7941;SDS011;4016;50.758;7.150;2024-01-30T03:04:52;9.83;;;8.27;;
7941;SDS011;4016;50.758;7.150;2024-01-30T03:09:52;11.30;;;8.57;;
7941;SDS011;4016;50.758;7.150;2024-01-30T03:14:55;11.30;;;8.43;;
7941;SDS011;4016;50.758;7.150;2024-01-30T03:19:55;12.47;;;8.40;;
7941;SDS011;4016;50.758;7.150;2024-01-30T03:24:56;9.73;;;8.07;;
7941;SDS011;4016;50.758;7.150;2024-01-30T03:29:56;13.90;;;8.13;;
7941;SDS011;4016;50.758;7.150;2024-01-30T03:34:56;10.00;;;8.00;;
7941;SDS011;4016;50.758;7.150;2024-01-30T03:39:58;9.07;;;7.83;;
7941;SDS011;4016;50.758;7.150;2024-01-30T03:44:58;12.23;;;9.23;;
7941;SDS011;4016;50.758;7.150;2024-01-30T03:49:58;11.80;;;8.30;;
7941;SDS011;4016;50.758;7.150;2024-01-30T03:54:59;12.70;;;9.53;;
7941;SDS011;4016;50.758;7.150;2024-01-30T03:59:59;12.83;;;10.47;;
7941;SDS011;4016;50.758;7.150;2024-01-30T04:05:00;13.00;;;10.20;;
7941;SDS011;4016;50.758;7.150;2024-01-30T04:10:00;12.80;;;11.07;;
7941;SDS011;4016;50.758;7.150;2024-01-30T04:15:01;14.07;;;11.27;;
7941;SDS011;4016;50.758;7.150;2024-01-30T04:20:02;15.80;;;11.80;;
7941;SDS011;4016;50.758;7.150;2024-01-30T04:25:03;14.87;;;11.57;;
7941;SDS011;4016;50.758;7.150;2024-01-30T04:30:03;13.97;;;10.97;;
7941;SDS011;4016;50.758;7.150;2024-01-30T04:35:04;13.90;;;9.83;;
7941;SDS011;4016;50.758;7.150;2024-01-30T04:40:05;12.70;;;9.70;;
7941;SDS011;4016;50.758;7.150;2024-01-30T04:45:06;11.27;;;9.33;;
7941;SDS011;4016;50.758;7.150;2024-01-30T04:50:07;11.90;;;8.37;;
7941;SDS011;4016;50.758;7.150;2024-01-30T04:55:08;13.43;;;8.80;;
7941;SDS011;4016;50.758;7.150;2024-01-30T05:00:09;10.27;;;8.40;;
7941;SDS011;4016;50.758;7.150;2024-01-30T05:05:10;11.60;;;8.20;;
7941;SDS011;4016;50.758;7.150;2024-01-30T05:10:10;9.63;;;7.83;;
7941;SDS011;4016;50.758;7.150;2024-01-30T05:15:11;11.83;;;8.60;;
7941;SDS011;4016;50.758;7.150;2024-01-30T05:20:11;9.93;;;8.70;;
7941;SDS011;4016;50.758;7.150;2024-01-30T05:25:12;13.03;;;11.00;;
7941;SDS011;4016;50.758;7.150;2024-01-30T05:30:13;15.77;;;13.20;;
7941;SDS011;4016;50.758;7.150;2024-01-30T05:35:13;15.27;;;13.33;;
7941;SDS011;4016;50.758;7.150;2024-01-30T05:40:14;15.03;;;12.87;;
7941;SDS011;4016;50.758;7.150;2024-01-30T05:45:14;19.77;;;13.70;;
7941;SDS011;4016;50.758;7.150;2024-01-30T05:50:15;15.07;;;13.47;;
7941;SDS011;4016;50.758;7.150;2024-01-30T05:55:15;15.03;;;11.97;;
7941;SDS011;4016;50.758;7.150;2024-01-30T06:00:16;13.03;;;10.73;;
7941;SDS011;4016;50.758;7.150;2024-01-30T06:05:16;13.90;;;11.43;;
7941;SDS011;4016;50.758;7.150;2024-01-30T06:10:17;11.83;;;9.77;;
7941;SDS011;4016;50.758;7.150;2024-01-30T06:15:17;11.17;;;8.80;;
7941;SDS011;4016;50.758;7.150;2024-01-30T06:20:18;10.50;;;8.23;;
7941;SDS011;4016;50.758;7.150;2024-01-30T06:25:18;10.33;;;8.63;;
7941;SDS011;4016;50.758;7.150;2024-01-30T06:30:18;11.33;;;7.67;;
7941;SDS011;4016;50.758;7.150;2024-01-30T06:35:19;10.10;;;8.77;;
7941;SDS011;4016;50.758;7.150;2024-01-30T06:40:19;10.87;;;8.50;;
7941;SDS011;4016;50.758;7.150;2024-01-30T06:45:20;11.97;;;9.00;;
7941;SDS011;4016;50.758;7.150;2024-01-30T06:50:20;13.90;;;10.43;;
7941;SDS011;4016;50.758;7.150;2024-01-30T06:55:20;11.37;;;9.10;;
7941;SDS011;4016;50.758;7.150;2024-01-30T07:00:21;11.17;;;9.47;;
7941;SDS011;4016;50.758;7.150;2024-01-30T07:05:21;12.13;;;9.57;;
7941;SDS011;4016;50.758;7.150;2024-01-30T07:10:22;11.53;;;9.20;;
7941;SDS011;4016;50.758;7.150;2024-01-30T07:15:22;14.47;;;8.87;;
7941;SDS011;4016;50.758;7.150;2024-01-30T07:20:22;11.13;;;8.27;;
7941;SDS011;4016;50.758;7.150;2024-01-30T07:25:23;10.97;;;8.80;;
7941;SDS011;4016;50.758;7.150;2024-01-30T07:30:27;14.93;;;9.40;;
7941;SDS011;4016;50.758;7.150;2024-01-30T07:35:27;13.50;;;8.73;;
7941;SDS011;4016;50.758;7.150;2024-01-30T07:40:27;10.83;;;9.03;;
7941;SDS011;4016;50.758;7.150;2024-01-30T07:45:28;12.93;;;9.43;;
7941;SDS011;4016;50.758;7.150;2024-01-30T07:50:32;12.20;;;9.60;;
7941;SDS011;4016;50.758;7.150;2024-01-30T07:55:32;10.90;;;9.00;;
7941;SDS011;4016;50.758;7.150;2024-01-30T08:00:33;11.93;;;8.67;;
7941;SDS011;4016;50.758;7.150;2024-01-30T08:05:33;11.43;;;8.90;;
7941;SDS011;4016;50.758;7.150;2024-01-30T08:10:33;11.83;;;8.97;;
7941;SDS011;4016;50.758;7.150;2024-01-30T08:15:34;12.07;;;9.23;;
7941;SDS011;4016;50.758;7.150;2024-01-30T08:20:34;12.20;;;9.33;;
7941;SDS011;4016;50.758;7.150;2024-01-30T08:25:35;15.27;;;10.53;;
7941;SDS011;4016;50.758;7.150;2024-01-30T08:30:36;13.20;;;10.70;;
7941;SDS011;4016;50.758;7.150;2024-01-30T08:35:39;15.03;;;10.60;;
7941;SDS011;4016;50.758;7.150;2024-01-30T08:40:39;13.13;;;10.63;;
7941;SDS011;4016;50.758;7.150;2024-01-30T08:45:39;11.57;;;9.90;;
7941;SDS011;4016;50.758;7.150;2024-01-30T08:50:40;13.10;;;10.50;;
7941;SDS011;4016;50.758;7.150;2024-01-30T08:55:40;15.10;;;11.40;;
7941;SDS011;4016;50.758;7.150;2024-01-30T09:00:41;14.93;;;11.37;;
7941;SDS011;4016;50.758;7.150;2024-01-30T09:05:41;12.97;;;10.40;;
7941;SDS011;4016;50.758;7.150;2024-01-30T09:10:41;14.03;;;12.50;;
7941;SDS011;4016;50.758;7.150;2024-01-30T09:15:42;14.80;;;11.83;;
7941;SDS011;4016;50.758;7.150;2024-01-30T09:20:42;13.73;;;11.17;;
7941;SDS011;4016;50.758;7.150;2024-01-30T09:25:42;14.87;;;10.17;;
7941;SDS011;4016;50.758;7.150;2024-01-30T09:30:43;12.60;;;10.13;;
7941;SDS011;4016;50.758;7.150;2024-01-30T09:35:44;12.93;;;9.47;;
7941;SDS011;4016;50.758;7.150;2024-01-30T09:40:45;10.60;;;9.00;;
7941;SDS011;4016;50.758;7.150;2024-01-30T09:45:53;11.13;;;9.73;;
7941;SDS011;4016;50.758;7.150;2024-01-30T09:50:55;9.03;;;8.13;;
7941;SDS011;4016;50.758;7.150;2024-01-30T09:55:57;12.43;;;8.27;;
7941;SDS011;4016;50.758;7.150;2024-01-30T10:00:58;10.37;;;8.10;;
7941;SDS011;4016;50.758;7.150;2024-01-30T10:05:59;11.13;;;7.83;;
7941;SDS011;4016;50.758;7.150;2024-01-30T10:11:00;10.73;;;7.80;;
7941;SDS011;4016;50.758;7.150;2024-01-30T10:16:01;9.87;;;7.20;;
7941;SDS011;4016;50.758;7.150;2024-01-30T10:21:03;9.27;;;6.77;;
7941;SDS011;4016;50.758;7.150;2024-01-30T10:26:03;8.00;;;6.30;;
7941;SDS011;4016;50.758;7.150;2024-01-30T10:31:04;9.43;;;6.40;;
7941;SDS011;4016;50.758;7.150;2024-01-30T10:36:05;9.63;;;6.73;;
7941;SDS011;4016;50.758;7.150;2024-01-30T10:41:06;7.60;;;6.57;;
7941;SDS011;4016;50.758;7.150;2024-01-30T10:46:18;9.37;;;7.13;;
7941;SDS011;4016;50.758;7.150;2024-01-30T10:51:20;9.17;;;6.57;;
7941;SDS011;4016;50.758;7.150;2024-01-30T10:56:22;8.57;;;7.03;;
7941;SDS011;4016;50.758;7.150;2024-01-30T11:01:23;9.70;;;7.63;;
7941;SDS011;4016;50.758;7.150;2024-01-30T11:06:25;9.73;;;6.93;;
7941;SDS011;4016;50.758;7.150;2024-01-30T11:11:25;9.83;;;6.57;;
7941;SDS011;4016;50.758;7.150;2024-01-30T11:16:30;6.90;;;6.20;;
7941;SDS011;4016;50.758;7.150;2024-01-30T11:21:32;9.03;;;7.17;;
7941;SDS011;4016;50.758;7.150;2024-01-30T11:26:32;8.87;;;7.27;;
7941;SDS011;4016;50.758;7.150;2024-01-30T11:31:32;8.57;;;7.23;;
7941;SDS011;4016;50.758;7.150;2024-01-30T11:36:33;7.80;;;6.97;;
7941;SDS011;4016;50.758;7.150;2024-01-30T11:41:37;6.83;;;6.20;;
7941;SDS011;4016;50.758;7.150;2024-01-30T11:46:39;7.97;;;6.87;;
7941;SDS011;4016;50.758;7.150;2024-01-30T11:51:40;7.47;;;6.60;;
7941;SDS011;4016;50.758;7.150;2024-01-30T11:56:40;9.40;;;7.27;;
7941;SDS011;4016;50.758;7.150;2024-01-30T12:01:41;7.80;;;7.00;;
7941;SDS011;4016;50.758;7.150;2024-01-30T12:06:42;6.93;;;6.23;;
7941;SDS011;4016;50.758;7.150;2024-01-30T12:11:49;7.27;;;6.40;;
7941;SDS011;4016;50.758;7.150;2024-01-30T12:16:52;7.10;;;6.20;;
7941;SDS011;4016;50.758;7.150;2024-01-30T12:21:56;9.40;;;7.50;;
7941;SDS011;4016;50.758;7.150;2024-01-30T12:26:59;10.60;;;6.90;;
7941;SDS011;4016;50.758;7.150;2024-01-30T12:32:00;6.30;;;5.70;;
7941;SDS011;4016;50.758;7.150;2024-01-30T12:37:00;8.10;;;6.67;;
7941;SDS011;4016;50.758;7.150;2024-01-30T12:42:01;7.10;;;6.10;;
7941;SDS011;4016;50.758;7.150;2024-01-30T12:47:04;6.87;;;5.50;;
7941;SDS011;4016;50.758;7.150;2024-01-30T12:52:05;7.33;;;6.17;;
7941;SDS011;4016;50.758;7.150;2024-01-30T12:57:05;11.17;;;6.90;;
7941;SDS011;4016;50.758;7.150;2024-01-30T13:02:06;8.47;;;6.57;;
7941;SDS011;4016;50.758;7.150;2024-01-30T13:07:07;7.50;;;6.37;;
7941;SDS011;4016;50.758;7.150;2024-01-30T13:12:07;7.57;;;6.60;;
7941;SDS011;4016;50.758;7.150;2024-01-30T13:17:07;7.80;;;6.27;;
7941;SDS011;4016;50.758;7.150;2024-01-30T13:22:08;9.20;;;6.43;;
7941;SDS011;4016;50.758;7.150;2024-01-30T13:27:08;9.97;;;7.07;;
7941;SDS011;4016;50.758;7.150;2024-01-30T13:32:08;7.90;;;6.77;;
7941;SDS011;4016;50.758;7.150;2024-01-30T13:37:09;8.30;;;7.10;;
7941;SDS011;4016;50.758;7.150;2024-01-30T13:42:09;8.70;;;6.53;;
7941;SDS011;4016;50.758;7.150;2024-01-30T13:47:09;7.40;;;6.50;;
7941;SDS011;4016;50.758;7.150;2024-01-30T13:52:10;8.93;;;6.50;;
7941;SDS011;4016;50.758;7.150;2024-01-30T13:57:10;9.17;;;6.67;;
7941;SDS011;4016;50.758;7.150;2024-01-30T14:02:11;7.03;;;6.20;;
7941;SDS011;4016;50.758;7.150;2024-01-30T14:07:11;8.57;;;6.40;;
7941;SDS011;4016;50.758;7.150;2024-01-30T14:12:12;8.97;;;6.60;;
7941;SDS011;4016;50.758;7.150;2024-01-30T14:17:12;7.57;;;6.30;;
7941;SDS011;4016;50.758;7.150;2024-01-30T14:22:13;7.40;;;6.37;;
7941;SDS011;4016;50.758;7.150;2024-01-30T14:27:13;8.80;;;6.77;;
7941;SDS011;4016;50.758;7.150;2024-01-30T14:32:13;8.53;;;6.03;;
7941;SDS011;4016;50.758;7.150;2024-01-30T14:37:14;8.43;;;6.73;;
7941;SDS011;4016;50.758;7.150;2024-01-30T14:42:14;7.00;;;5.97;;
7941;SDS011;4016;50.758;7.150;2024-01-30T14:47:15;7.33;;;5.67;;
7941;SDS011;4016;50.758;7.150;2024-01-30T14:52:15;8.47;;;6.07;;
7941;SDS011;4016;50.758;7.150;2024-01-30T14:57:16;6.90;;;5.87;;
7941;SDS011;4016;50.758;7.150;2024-01-30T15:02:16;9.07;;;6.43;;
7941;SDS011;4016;50.758;7.150;2024-01-30T15:07:17;9.97;;;6.13;;
7941;SDS011;4016;50.758;7.150;2024-01-30T15:12:17;7.43;;;6.73;;
7941;SDS011;4016;50.758;7.150;2024-01-30T15:17:18;8.27;;;6.63;;
7941;SDS011;4016;50.758;7.150;2024-01-30T15:22:19;6.63;;;5.97;;
7941;SDS011;4016;50.758;7.150;2024-01-30T15:27:19;9.37;;;6.67;;
7941;SDS011;4016;50.758;7.150;2024-01-30T15:32:19;7.93;;;6.00;;
7941;SDS011;4016;50.758;7.150;2024-01-30T15:37:20;7.00;;;5.93;;
7941;SDS011;4016;50.758;7.150;2024-01-30T15:42:21;9.90;;;6.60;;
7941;SDS011;4016;50.758;7.150;2024-01-30T15:47:21;8.33;;;6.63;;
7941;SDS011;4016;50.758;7.150;2024-01-30T15:52:21;8.63;;;6.33;;
7941;SDS011;4016;50.758;7.150;2024-01-30T15:57:22;8.00;;;6.70;;
7941;SDS011;4016;50.758;7.150;2024-01-30T16:02:22;7.90;;;6.37;;
7941;SDS011;4016;50.758;7.150;2024-01-30T16:07:22;8.67;;;6.23;;
7941;SDS011;4016;50.758;7.150;2024-01-30T16:12:23;7.13;;;6.43;;
7941;SDS011;4016;50.758;7.150;2024-01-30T16:17:23;7.47;;;6.40;;
7941;SDS011;4016;50.758;7.150;2024-01-30T16:22:23;9.13;;;6.83;;
7941;SDS011;4016;50.758;7.150;2024-01-30T16:27:24;8.77;;;6.40;;
7941;SDS011;4016;50.758;7.150;2024-01-30T16:32:24;7.43;;;6.40;;
7941;SDS011;4016;50.758;7.150;2024-01-30T16:37:25;9.43;;;6.93;;
7941;SDS011;4016;50.758;7.150;2024-01-30T16:42:25;7.20;;;6.13;;
7941;SDS011;4016;50.758;7.150;2024-01-30T16:47:25;10.83;;;6.90;;
7941;SDS011;4016;50.758;7.150;2024-01-30T16:52:26;12.37;;;7.17;;
7941;SDS011;4016;50.758;7.150;2024-01-30T16:57:26;12.43;;;7.30;;
7941;SDS011;4016;50.758;7.150;2024-01-30T17:02:26;9.87;;;7.20;;
7941;SDS011;4016;50.758;7.150;2024-01-30T17:07:27;10.67;;;7.30;;
7941;SDS011;4016;50.758;7.150;2024-01-30T17:12:33;7.60;;;6.37;;
7941;SDS011;4016;50.758;7.150;2024-01-30T17:17:34;9.73;;;6.33;;
7941;SDS011;4016;50.758;7.150;2024-01-30T17:22:34;8.93;;;6.30;;
7941;SDS011;4016;50.758;7.150;2024-01-30T17:27:36;8.77;;;6.47;;
7941;SDS011;4016;50.758;7.150;2024-01-30T17:32:36;9.50;;;5.27;;
7941;SDS011;4016;50.758;7.150;2024-01-30T17:37:36;8.27;;;4.90;;
7941;SDS011;4016;50.758;7.150;2024-01-30T17:42:38;6.77;;;5.00;;
7941;SDS011;4016;50.758;7.150;2024-01-30T17:47:38;9.23;;;4.70;;
7941;SDS011;4016;50.758;7.150;2024-01-30T17:52:39;4.83;;;3.90;;
7941;SDS011;4016;50.758;7.150;2024-01-30T17:57:39;5.57;;;4.03;;
7941;SDS011;4016;50.758;7.150;2024-01-30T18:02:40;6.40;;;3.43;;
7941;SDS011;4016;50.758;7.150;2024-01-30T18:07:41;4.53;;;3.10;;
7941;SDS011;4016;50.758;7.150;2024-01-30T18:12:44;4.10;;;3.10;;
7941;SDS011;4016;50.758;7.150;2024-01-30T18:17:44;3.87;;;2.90;;
7941;SDS011;4016;50.758;7.150;2024-01-30T18:22:45;3.90;;;2.63;;
7941;SDS011;4016;50.758;7.150;2024-01-30T18:27:46;4.83;;;2.80;;
7941;SDS011;4016;50.758;7.150;2024-01-30T18:32:46;3.80;;;2.97;;
7941;SDS011;4016;50.758;7.150;2024-01-30T18:37:48;4.43;;;3.00;;
7941;SDS011;4016;50.758;7.150;2024-01-30T18:42:49;3.53;;;2.97;;
7941;SDS011;4016;50.758;7.150;2024-01-30T18:47:49;4.40;;;3.23;;
7941;SDS011;4016;50.758;7.150;2024-01-30T18:52:51;3.03;;;2.67;;
7941;SDS011;4016;50.758;7.150;2024-01-30T18:57:51;4.27;;;3.83;;
7941;SDS011;4016;50.758;7.150;2024-01-30T19:02:52;3.20;;;2.90;;
7941;SDS011;4016;50.758;7.150;2024-01-30T19:07:52;4.40;;;2.50;;
7941;SDS011;4016;50.758;7.150;2024-01-30T19:12:53;2.47;;;2.27;;
7941;SDS011;4016;50.758;7.150;2024-01-30T19:17:53;3.60;;;2.80;;
7941;SDS011;4016;50.758;7.150;2024-01-30T19:22:54;3.53;;;2.67;;
7941;SDS011;4016;50.758;7.150;2024-01-30T19:27:55;3.27;;;2.57;;
7941;SDS011;4016;50.758;7.150;2024-01-30T19:32:58;3.27;;;2.20;;
7941;SDS011;4016;50.758;7.150;2024-01-30T19:37:59;3.93;;;3.03;;
7941;SDS011;4016;50.758;7.150;2024-01-30T19:42:59;3.63;;;2.77;;
7941;SDS011;4016;50.758;7.150;2024-01-30T19:48:00;3.00;;;2.70;;
7941;SDS011;4016;50.758;7.150;2024-01-30T19:53:00;3.70;;;3.03;;
7941;SDS011;4016;50.758;7.150;2024-01-30T19:58:01;3.70;;;2.57;;
7941;SDS011;4016;50.758;7.150;2024-01-30T20:03:03;2.80;;;2.60;;
7941;SDS011;4016;50.758;7.150;2024-01-30T20:08:03;3.27;;;2.83;;
7941;SDS011;4016;50.758;7.150;2024-01-30T20:13:04;5.60;;;3.40;;
7941;SDS011;4016;50.758;7.150;2024-01-30T20:18:04;3.23;;;2.60;;
7941;SDS011;4016;50.758;7.150;2024-01-30T20:23:05;3.53;;;2.83;;
7941;SDS011;4016;50.758;7.150;2024-01-30T20:28:05;4.53;;;3.27;;
7941;SDS011;4016;50.758;7.150;2024-01-30T20:33:06;2.73;;;2.30;;
7941;SDS011;4016;50.758;7.150;2024-01-30T20:38:07;3.73;;;3.00;;
7941;SDS011;4016;50.758;7.150;2024-01-30T20:43:07;5.03;;;2.87;;
7941;SDS011;4016;50.758;7.150;2024-01-30T20:48:08;6.57;;;2.87;;
7941;SDS011;4016;50.758;7.150;2024-01-30T20:53:08;3.90;;;2.40;;
7941;SDS011;4016;50.758;7.150;2024-01-30T20:58:08;5.23;;;2.27;;
7941;SDS011;4016;50.758;7.150;2024-01-30T21:03:09;4.33;;;2.80;;
7941;SDS011;4016;50.758;7.150;2024-01-30T21:08:10;5.60;;;2.70;;
7941;SDS011;4016;50.758;7.150;2024-01-30T21:13:11;4.17;;;2.30;;
7941;SDS011;4016;50.758;7.150;2024-01-30T21:18:12;3.43;;;2.80;;
7941;SDS011;4016;50.758;7.150;2024-01-30T21:23:14;3.40;;;2.50;;
7941;SDS011;4016;50.758;7.150;2024-01-30T21:28:14;2.40;;;2.20;;
7941;SDS011;4016;50.758;7.150;2024-01-30T21:33:17;3.33;;;2.50;;
7941;SDS011;4016;50.758;7.150;2024-01-30T21:38:17;4.73;;;2.60;;
7941;SDS011;4016;50.758;7.150;2024-01-30T21:43:19;3.30;;;2.43;;
7941;SDS011;4016;50.758;7.150;2024-01-30T21:48:19;5.20;;;3.00;;
7941;SDS011;4016;50.758;7.150;2024-01-30T21:53:19;3.50;;;2.70;;
7941;SDS011;4016;50.758;7.150;2024-01-30T21:58:20;3.97;;;3.13;;
7941;SDS011;4016;50.758;7.150;2024-01-30T22:03:20;3.53;;;2.50;;
7941;SDS011;4016;50.758;7.150;2024-01-30T22:08:20;3.73;;;2.90;;
7941;SDS011;4016;50.758;7.150;2024-01-30T22:13:21;3.30;;;2.67;;
7941;SDS011;4016;50.758;7.150;2024-01-30T22:18:22;5.37;;;2.73;;
7941;SDS011;4016;50.758;7.150;2024-01-30T22:23:23;3.03;;;2.20;;
7941;SDS011;4016;50.758;7.150;2024-01-30T22:28:23;5.33;;;3.50;;
7941;SDS011;4016;50.758;7.150;2024-01-30T22:33:23;3.20;;;2.83;;
7941;SDS011;4016;50.758;7.150;2024-01-30T22:38:26;2.97;;;2.63;;
7941;SDS011;4016;50.758;7.150;2024-01-30T22:43:26;3.23;;;2.83;;
7941;SDS011;4016;50.758;7.150;2024-01-30T22:48:28;6.20;;;3.20;;
7941;SDS011;4016;50.758;7.150;2024-01-30T22:53:28;3.53;;;2.87;;
7941;SDS011;4016;50.758;7.150;2024-01-30T22:58:29;4.90;;;3.27;;
7941;SDS011;4016;50.758;7.150;2024-01-30T23:03:29;4.10;;;3.20;;
7941;SDS011;4016;50.758;7.150;2024-01-30T23:08:29;3.73;;;2.97;;
7941;SDS011;4016;50.758;7.150;2024-01-30T23:13:30;4.03;;;3.47;;
7941;SDS011;4016;50.758;7.150;2024-01-30T23:18:30;4.93;;;3.70;;
7941;SDS011;4016;50.758;7.150;2024-01-30T23:23:30;4.93;;;3.90;;
7941;SDS011;4016;50.758;7.150;2024-01-30T23:28:31;4.70;;;3.67;;
7941;SDS011;4016;50.758;7.150;2024-01-30T23:33:31;4.30;;;3.57;;
7941;SDS011;4016;50.758;7.150;2024-01-30T23:38:32;5.10;;;3.43;;
7941;SDS011;4016;50.758;7.150;2024-01-30T23:43:32;7.30;;;3.83;;
7941;SDS011;4016;50.758;7.150;2024-01-30T23:48:33;5.00;;;4.10;;
7941;SDS011;4016;50.758;7.150;2024-01-30T23:53:33;5.30;;;3.70;;
7941;SDS011;4016;50.758;7.150;2024-01-30T23:58:34;7.07;;;4.17;;
